Terminal Aerodrome Forecast
Issued by NWS

Home | Current Version | Previous Version | Graphics & Text | Print | Product List | Glossary On
Versions: 1 2 3 4 5 6 7 8 9 10 11 12 13 14 15 16 17 18 19 20 21 22 23 24 25 26 27 28 29 30 31 32 33 34 35 36 37 38 39 40 41 42 43 44 45 46 47 48 49 50
348
FTUS43 KLOT 271136
TAFGYY
TAF
KGYY 271136Z 2712/2812 13007KT 5SM -RA BR SCT015 SCT035 BKN060
      TEMPO 2712/2714 3SM -TSRA SCT008 BKN020CB OVC040
     FM271600 16008KT P6SM SCT015 BKN030 BKN050
     FM271900 22011KT P6SM VCSH SCT030 BKN050
     FM272300 22007KT P6SM SCT040 BKN200
     FM280900 35005KT P6SM SCT015 OVC030=

USA.gov is the U.S. government's official web portal to all federal, state and local government web resources and services.